Time;durP1;ratioP1;P1;durP2;ratioP2;P2;SDS_P1;SDS_P2;PMS_P1;PMS_P2;Temp;Humidity;BMP_temperature;BMP_pressure;BME280_temperature;BME280_humidity;BME280_pressure;Samples;Min_cycle;Max_cycle;Signal;HPM_P1;HPM_P2
2023/06/29 00:01:46;;;;;;;;;;;23.60;54.50;;;23.83;39.12;98717.22;5017507;28;119541;-76
2023/06/29 00:04:18;;;;;;;;;;;23.60;54.70;;;23.81;39.12;98714.81;5039507;27;124212;-76
2023/06/29 00:06:46;;;;;;;;;;;23.60;54.70;;;23.78;39.20;98724.88;5017973;28;123939;-75
2023/06/29 00:09:12;;;;;;;;;;;23.50;54.60;;;23.74;39.20;98721.25;5026404;27;120524;-75
2023/06/29 00:11:39;;;;;;;;;;;23.50;54.80;;;23.73;39.38;98725.28;5024102;27;119437;-75
2023/06/29 00:14:05;;;;;;;;;;;23.50;54.90;;;23.72;39.16;98718.03;5022643;27;124225;-76
2023/06/29 00:16:31;;;;;;;;;;;23.50;55.00;;;23.67;39.34;98724.06;5024751;27;124306;-75
2023/06/29 00:19:01;;;;;;;;;;;23.50;55.00;;;23.66;39.34;98724.44;5023619;27;119460;-76
2023/06/29 00:21:31;;;;;;;;;;;23.40;54.90;;;23.64;39.46;98722.00;5010595;27;118911;-75
2023/06/29 00:23:58;;;;;;;;;;;23.40;55.00;;;23.62;39.39;98718.81;5023333;28;124182;-75
2023/06/29 00:26:28;;;;;;;;;;;23.40;55.10;;;23.60;39.43;98716.38;5015496;27;123216;-76
2023/06/29 00:28:55;;;;;;;;;;;23.30;55.10;;;23.59;39.53;98716.78;5042704;27;120094;-76
2023/06/29 00:31:24;;;;;;;;;;;23.40;55.30;;;23.56;39.53;98712.75;5029218;27;118018;-79
2023/06/29 00:33:51;;;;;;;;;;;23.30;55.20;;;23.55;39.74;98707.50;5037544;27;124903;-76
2023/06/29 00:36:17;;;;;;;;;;;23.30;55.30;;;23.53;39.62;98709.94;5024558;28;124030;-75
2023/06/29 00:38:44;;;;;;;;;;;23.30;55.30;;;23.51;39.88;98706.72;5024499;28;119392;-75
2023/06/29 00:41:10;;;;;;;;;;;23.30;55.40;;;23.49;39.67;98714.78;5022905;27;119399;-75
2023/06/29 00:43:36;;;;;;;;;;;23.20;55.40;;;23.46;39.79;98705.09;5022972;28;124305;-75
2023/06/29 00:46:07;;;;;;;;;;;23.20;55.50;;;23.45;39.89;98703.47;5027044;27;123797;-75
2023/06/29 00:48:35;;;;;;;;;;;23.20;55.60;;;23.43;39.90;98699.44;5017286;27;120291;-75
2023/06/29 00:51:03;;;;;;;;;;;23.20;55.70;;;23.42;40.03;98701.44;5033428;27;118475;-76
2023/06/29 00:53:32;;;;;;;;;;;23.20;55.70;;;23.40;40.06;98701.06;5041963;27;124389;-75
2023/06/29 00:56:00;;;;;;;;;;;23.20;55.80;;;23.38;40.10;98698.63;5043293;27;124197;-76
2023/06/29 00:58:26;;;;;;;;;;;23.10;55.80;;;23.38;40.09;98701.47;5028098;27;120200;-75
2023/06/29 01:00:53;;;;;;;;;;;23.10;56.00;;;23.35;40.15;98699.44;5022573;27;119879;-76
2023/06/29 01:03:20;;;;;;;;;;;23.10;56.00;;;23.33;40.27;98695.41;5026358;27;124228;-75
2023/06/29 01:05:47;;;;;;;;;;;23.10;56.00;;;23.29;40.42;98689.78;5008584;27;123249;-76
2023/06/29 01:08:19;;;;;;;;;;;23.10;56.10;;;23.27;40.40;98697.81;5023497;28;119484;-75
2023/06/29 01:10:46;;;;;;;;;;;23.00;56.20;;;23.26;40.47;98690.56;5000662;27;117815;-75
2023/06/29 01:13:16;;;;;;;;;;;23.00;56.30;;;23.23;40.38;98685.72;5024786;27;124239;-75
2023/06/29 01:15:42;;;;;;;;;;;23.00;56.50;;;23.22;40.55;98684.13;5029099;27;123954;-75
2023/06/29 01:18:11;;;;;;;;;;;23.00;56.60;;;23.20;40.80;98688.53;5012643;28;118238;-76
2023/06/29 01:20:40;;;;;;;;;;;23.00;56.60;;;23.17;40.77;98687.34;5025229;27;118553;-75
2023/06/29 01:23:22;;;;;;;;;;;22.90;56.60;;;23.12;40.93;98685.72;5019076;28;124253;-75
2023/06/29 01:25:50;;;;;;;;;;;22.90;56.60;;;23.09;40.73;98686.50;5018816;27;123429;-75
2023/06/29 01:28:18;;;;;;;;;;;22.90;56.80;;;23.07;40.76;98682.47;5009571;27;119625;-75
2023/06/29 01:30:48;;;;;;;;;;;22.80;56.70;;;23.03;40.96;98676.03;5026646;27;118781;-76
2023/06/29 01:33:16;;;;;;;;;;;22.80;56.80;;;23.00;41.10;98676.81;5008287;28;124811;-75
2023/06/29 01:35:45;;;;;;;;;;;22.80;57.00;;;22.98;41.06;98685.69;5017074;27;124584;-75
2023/06/29 01:38:20;;;;;;;;;;;22.70;57.00;;;22.96;41.01;98684.44;5030210;27;119490;-75
2023/06/29 01:40:48;;;;;;;;;;;22.70;57.10;;;22.95;41.04;98680.81;5023824;27;118810;-74
2023/06/29 01:43:19;;;;;;;;;;;22.70;57.20;;;22.94;41.23;98676.38;5025937;27;124211;-75
2023/06/29 01:45:48;;;;;;;;;;;22.70;57.30;;;22.92;41.49;98670.34;5027154;28;123824;-74
2023/06/29 01:48:14;;;;;;;;;;;22.60;57.20;;;22.89;41.28;98671.94;5024373;27;120746;-74
2023/06/29 01:50:41;;;;;;;;;;;22.60;57.30;;;22.88;41.44;98675.94;5025544;27;119417;-79
2023/06/29 01:53:07;;;;;;;;;;;22.60;57.30;;;22.86;41.22;98667.13;5025457;27;124238;-76
2023/06/29 01:55:34;;;;;;;;;;;22.60;57.40;;;22.84;41.39;98666.69;5010583;28;123012;-75
2023/06/29 01:58:00;;;;;;;;;;;22.60;57.50;;;22.82;41.56;98671.13;5006825;28;118623;-75
2023/06/29 02:00:26;;;;;;;;;;;22.50;57.40;;;22.79;41.51;98672.72;5025119;27;118818;-75
2023/06/29 02:02:53;;;;;;;;;;;22.50;57.50;;;22.75;41.70;98671.88;5027024;27;124022;-75
2023/06/29 02:05:20;;;;;;;;;;;22.50;57.60;;;22.75;41.63;98671.88;5016992;27;124065;-76
2023/06/29 02:07:46;;;;;;;;;;;22.50;57.70;;;22.74;41.52;98667.47;5003077;28;119790;-77
2023/06/29 02:10:13;;;;;;;;;;;22.50;57.70;;;22.71;41.75;98671.09;5023290;27;118559;-76
2023/06/29 02:12:41;;;;;;;;;;;22.50;57.80;;;22.70;41.56;98666.63;5024921;27;123589;-75
2023/06/29 02:15:08;;;;;;;;;;;22.40;57.90;;;22.67;42.06;98665.41;5015985;27;123250;-78
2023/06/29 02:17:34;;;;;;;;;;;22.40;58.00;;;22.67;41.78;98664.63;5029124;27;118934;-77
2023/06/29 02:20:03;;;;;;;;;;;22.40;58.00;;;22.59;42.13;98660.16;5028227;27;117698;-77
2023/06/29 02:22:29;;;;;;;;;;;22.40;58.20;;;22.50;42.29;98652.09;5020342;27;123957;-77
2023/06/29 02:24:57;;;;;;;;;;;22.30;58.40;;;22.43;42.60;98655.69;5024068;27;123681;-77
2023/06/29 02:27:24;;;;;;;;;;;22.30;58.50;;;22.41;42.78;98655.28;5008860;27;118481;-77
2023/06/29 02:29:50;;;;;;;;;;;22.30;58.70;;;22.41;42.89;98657.31;5040943;27;117980;-77
2023/06/29 02:32:16;;;;;;;;;;;22.20;58.80;;;22.41;42.71;98655.28;5027005;27;123930;-77
2023/06/29 02:34:45;;;;;;;;;;;22.20;59.00;;;22.40;42.86;98650.84;5011843;28;123875;-77
2023/06/29 02:37:11;;;;;;;;;;;22.20;59.20;;;22.40;43.09;98656.47;5017291;27;120425;-77
2023/06/29 02:39:37;;;;;;;;;;;22.20;59.30;;;22.40;42.95;98650.84;5010675;27;120392;-76
2023/06/29 02:42:06;;;;;;;;;;;22.20;60.00;;;22.39;43.04;98649.25;5023321;27;124158;-76
2023/06/29 02:44:34;;;;;;;;;;;22.10;59.40;;;22.38;43.10;98641.16;5026031;27;123809;-77
2023/06/29 02:47:05;;;;;;;;;;;22.10;59.50;;;22.36;43.35;98641.59;5025573;27;119781;-78
2023/06/29 02:49:34;;;;;;;;;;;22.10;59.60;;;22.34;43.30;98637.56;5023026;27;118709;-77
2023/06/29 02:52:01;;;;;;;;;;;22.10;59.70;;;22.32;43.09;98646.38;5026821;27;123730;-77
2023/06/29 02:54:27;;;;;;;;;;;22.10;59.80;;;22.31;43.41;98652.41;5013873;27;123925;-75
2023/06/29 02:56:53;;;;;;;;;;;22.10;59.90;;;22.28;43.43;98637.13;5028715;27;118378;-76
2023/06/29 02:59:21;;;;;;;;;;;22.00;59.80;;;22.28;43.52;98639.94;5024219;27;119349;-75
2023/06/29 03:01:47;;;;;;;;;;;22.00;59.90;;;22.24;43.63;98636.28;5012057;27;125193;-77
2023/06/29 03:04:13;;;;;;;;;;;22.00;59.90;;;22.23;43.44;98645.94;5023875;27;123811;-76
2023/06/29 03:06:40;;;;;;;;;;;22.00;60.00;;;22.20;43.68;98636.28;5026116;28;119387;-77
2023/06/29 03:09:06;;;;;;;;;;;22.00;60.00;;;22.20;43.36;98635.47;5029000;27;117889;-76
2023/06/29 03:11:32;;;;;;;;;;;22.00;60.20;;;22.17;43.67;98630.63;5017719;27;124149;-77
2023/06/29 03:13:58;;;;;;;;;;;21.90;60.10;;;22.16;43.55;98643.06;5014020;27;124274;-76
2023/06/29 03:16:25;;;;;;;;;;;21.90;60.20;;;22.13;43.79;98647.47;5019552;27;119492;-75
2023/06/29 03:18:51;;;;;;;;;;;21.90;60.40;;;22.12;43.85;98643.03;5021640;27;118464;-75
2023/06/29 03:21:20;;;;;;;;;;;21.90;60.50;;;22.11;44.00;98638.63;5024031;27;124131;-76
2023/06/29 03:23:47;;;;;;;;;;;21.80;60.50;;;22.09;43.96;98637.41;5016311;27;124266;-76
2023/06/29 03:26:13;;;;;;;;;;;21.80;60.50;;;22.06;43.81;98642.63;5020574;27;120615;-75
2023/06/29 03:28:39;;;;;;;;;;;21.80;60.60;;;22.04;44.00;98633.75;5005477;28;118646;-75
2023/06/29 03:31:06;;;;;;;;;;;21.80;60.60;;;22.03;43.84;98642.56;5033226;27;124561;-75
2023/06/29 03:33:32;;;;;;;;;;;21.80;60.60;;;22.01;43.86;98628.91;5025764;28;124006;-75
2023/06/29 03:35:58;;;;;;;;;;;21.80;60.80;;;21.99;44.00;98631.31;5023870;27;118826;-76
2023/06/29 03:38:25;;;;;;;;;;;21.70;60.60;;;21.97;44.09;98636.50;5021336;27;119336;-74
2023/06/29 03:40:53;;;;;;;;;;;21.70;60.70;;;21.97;43.81;98638.53;5007462;28;123218;-75
2023/06/29 03:43:19;;;;;;;;;;;21.70;60.70;;;21.96;44.21;98637.72;5022007;27;123864;-75
2023/06/29 03:45:46;;;;;;;;;;;21.70;60.90;;;21.95;44.34;98641.75;5033354;27;118408;-75
2023/06/29 03:48:12;;;;;;;;;;;21.70;61.00;;;21.94;44.14;98640.13;5019438;27;118734;-75
2023/06/29 03:50:38;;;;;;;;;;;21.70;61.10;;;21.92;44.25;98634.06;5027372;27;124920;-76
2023/06/29 03:53:04;;;;;;;;;;;21.60;61.00;;;21.94;44.33;98634.50;5033541;27;124290;-75
2023/06/29 03:55:31;;;;;;;;;;;21.70;61.20;;;21.96;43.95;98637.72;5026738;27;119376;-75
2023/06/29 03:57:57;;;;;;;;;;;21.60;61.20;;;21.97;44.29;98628.06;5024738;27;118842;-75
2023/06/29 04:00:24;;;;;;;;;;;21.70;61.30;;;21.97;44.12;98633.69;5024086;27;123742;-75
2023/06/29 04:02:50;;;;;;;;;;;21.60;61.10;;;21.99;43.82;98639.75;5003397;28;122775;-75
2023/06/29 04:05:16;;;;;;;;;;;21.60;61.10;;;22.03;43.81;98637.78;5021521;28;119435;-74
2023/06/29 04:07:42;;;;;;;;;;;21.60;61.00;;;22.09;43.58;98634.59;5023542;27;118536;-77
2023/06/29 04:10:11;;;;;;;;;;;21.70;61.00;;;22.04;43.66;98633.75;5023171;27;124122;-75
2023/06/29 04:12:40;;;;;;;;;;;21.70;61.00;;;21.98;43.78;98632.53;5022936;27;126630;-76
2023/06/29 04:15:07;;;;;;;;;;;21.70;61.00;;;21.96;43.79;98626.47;5018935;27;120486;-75
2023/06/29 04:17:33;;;;;;;;;;;21.60;60.90;;;21.95;43.81;98624.88;5028097;27;119372;-78
2023/06/29 04:19:59;;;;;;;;;;;21.60;60.90;;;21.95;44.05;98627.69;5022947;27;125267;-75
2023/06/29 04:22:25;;;;;;;;;;;21.60;60.90;;;21.91;43.99;98624.03;5024785;27;123741;-77
2023/06/29 04:24:52;;;;;;;;;;;21.60;60.80;;;21.90;44.03;98627.25;5017672;28;119413;-76
2023/06/29 04:27:18;;;;;;;;;;;21.60;60.80;;;21.88;43.62;98624.81;5027215;27;117942;-77
2023/06/29 04:29:44;;;;;;;;;;;21.60;60.80;;;21.87;43.83;98631.66;5020855;27;124376;-78
2023/06/29 04:32:13;;;;;;;;;;;21.60;60.90;;;21.86;43.81;98624.41;5027051;27;124572;-77
2023/06/29 04:34:39;;;;;;;;;;;21.60;60.80;;;21.87;43.67;98617.59;5019768;27;119464;-76
2023/06/29 04:37:08;;;;;;;;;;;21.60;60.80;;;21.86;43.78;98618.78;5020780;27;118690;-77
2023/06/29 04:39:35;;;;;;;;;;;21.60;60.90;;;21.85;43.59;98619.97;5017927;27;123981;-77
2023/06/29 04:42:02;;;;;;;;;;;21.60;60.90;;;21.86;43.97;98618.78;5031423;27;124122;-77
2023/06/29 04:44:32;;;;;;;;;;;21.60;60.80;;;21.88;44.11;98622.00;5011964;27;119431;-78
2023/06/29 04:47:02;;;;;;;;;;;21.60;60.90;;;21.89;43.90;98623.63;5014170;27;118836;-78
2023/06/29 04:49:32;;;;;;;;;;;21.60;61.30;;;21.94;44.20;98616.81;5013847;27;124834;-78
2023/06/29 04:52:00;;;;;;;;;;;21.60;61.60;;;21.98;44.18;98618.47;5015257;27;124523;-76
2023/06/29 04:54:27;;;;;;;;;;;21.60;61.50;;;22.02;44.01;98619.25;5029281;27;118382;-76
2023/06/29 04:56:54;;;;;;;;;;;21.60;61.40;;;22.06;44.00;98614.47;5020386;27;118820;-78
2023/06/29 04:59:24;;;;;;;;;;;21.70;61.50;;;22.10;43.89;98619.31;5018269;27;124839;-79
2023/06/29 05:01:53;;;;;;;;;;;21.70;61.50;;;22.07;43.79;98612.47;5019658;27;124517;-78
2023/06/29 05:04:19;;;;;;;;;;;21.70;61.20;;;22.06;43.66;98614.47;5015181;27;119163;-78
2023/06/29 05:06:46;;;;;;;;;;;21.70;61.30;;;22.12;43.69;98616.91;5027787;27;119999;-76
2023/06/29 05:09:12;;;;;;;;;;;21.80;61.40;;;22.15;43.55;98607.69;5025632;27;124167;-77
2023/06/29 05:11:39;;;;;;;;;;;21.80;61.30;;;22.20;43.93;98618.59;5025391;27;123692;-77
2023/06/29 05:14:05;;;;;;;;;;;21.80;61.30;;;22.24;43.85;98613.78;5016345;27;119501;-78
2023/06/29 05:16:32;;;;;;;;;;;21.80;61.20;;;22.30;43.59;98615.03;5016904;27;119340;-76
2023/06/29 05:18:58;;;;;;;;;;;21.90;61.40;;;22.32;43.56;98609.78;5024304;27;124263;-77
2023/06/29 05:21:26;;;;;;;;;;;21.90;61.10;;;22.36;43.40;98613.44;5024496;27;124247;-76
2023/06/29 05:23:53;;;;;;;;;;;22.00;61.10;;;22.39;42.98;98614.66;5026373;27;119640;-77
2023/06/29 05:26:20;;;;;;;;;;;22.00;60.90;;;22.40;43.44;98614.25;5032952;27;118789;-77
2023/06/29 05:28:46;;;;;;;;;;;22.00;60.80;;;22.41;42.90;98615.88;5016816;27;124292;-77
2023/06/29 05:31:14;;;;;;;;;;;22.00;60.70;;;22.44;43.05;98609.44;5026843;27;124005;-77
2023/06/29 05:33:41;;;;;;;;;;;22.00;60.70;;;22.47;42.97;98611.47;5036986;27;119511;-78
2023/06/29 05:36:07;;;;;;;;;;;22.10;60.80;;;22.51;42.74;98611.47;5032719;27;117793;-77
2023/06/29 05:38:33;;;;;;;;;;;22.10;60.70;;;22.53;43.02;98608.25;5036149;27;124308;-77
2023/06/29 05:40:59;;;;;;;;;;;22.10;60.60;;;22.54;42.46;98607.03;5018537;27;123829;-76
2023/06/29 05:43:25;;;;;;;;;;;22.10;60.50;;;22.58;42.53;98614.31;5028125;27;120303;-77
2023/06/29 05:45:52;;;;;;;;;;;22.20;60.60;;;22.64;42.59;98606.28;5019227;27;118614;-76
2023/06/29 05:48:18;;;;;;;;;;;22.20;60.50;;;22.70;42.57;98607.50;5024137;27;123472;-76
2023/06/29 05:50:44;;;;;;;;;;;22.30;60.50;;;22.77;42.42;98606.72;5024138;27;122868;-77
2023/06/29 05:53:10;;;;;;;;;;;22.30;60.40;;;22.80;42.16;98611.53;5026805;27;120889;-77
2023/06/29 05:55:40;;;;;;;;;;;22.30;60.30;;;22.80;42.46;98600.28;5020858;28;118988;-76
2023/06/29 05:58:06;;;;;;;;;;;22.40;60.30;;;22.80;42.27;98601.06;5031574;27;124170;-77
2023/06/29 06:00:32;;;;;;;;;;;22.30;60.10;;;22.85;42.12;98597.88;5028184;27;124016;-76
2023/06/29 06:02:58;;;;;;;;;;;22.40;60.10;;;22.88;42.08;98602.69;5039508;27;119374;-76
2023/06/29 06:05:27;;;;;;;;;;;22.40;60.10;;;22.91;42.17;98607.53;5032544;27;119037;-76
2023/06/29 06:07:53;;;;;;;;;;;22.40;60.00;;;22.94;42.01;98606.75;5036173;27;124467;-77
2023/06/29 06:10:19;;;;;;;;;;;22.50;60.00;;;22.98;41.90;98603.97;5033872;27;123995;-76
2023/06/29 06:12:46;;;;;;;;;;;22.50;60.00;;;23.05;41.89;98600.34;5029286;27;119832;-76
2023/06/29 06:15:14;;;;;;;;;;;22.60;59.90;;;23.13;41.66;98596.31;5018323;27;119137;-76
2023/06/29 06:17:40;;;;;;;;;;;22.60;59.90;;;23.17;41.55;98593.50;5022418;27;124804;-76
2023/06/29 06:20:08;;;;;;;;;;;22.70;59.80;;;23.20;41.74;98589.88;5039318;27;123413;-76
2023/06/29 06:22:34;;;;;;;;;;;22.70;59.70;;;23.26;41.65;98611.63;5009096;27;119689;-76
2023/06/29 06:25:00;;;;;;;;;;;22.80;59.70;;;23.35;41.45;98603.59;5007425;27;118671;-76
2023/06/29 06:27:27;;;;;;;;;;;22.80;59.60;;;23.43;41.54;98595.94;5008641;27;124469;-76
2023/06/29 06:29:53;;;;;;;;;;;22.90;59.70;;;23.49;41.29;98601.97;5015698;27;123280;-76
2023/06/29 06:32:21;;;;;;;;;;;23.00;59.70;;;23.52;41.24;98595.50;5022368;27;119338;-76
2023/06/29 06:34:48;;;;;;;;;;;22.90;59.50;;;23.58;41.02;98593.88;5024682;27;119296;-76
2023/06/29 06:37:14;;;;;;;;;;;23.00;59.50;;;23.67;41.13;98594.28;5021113;27;123640;-76
2023/06/29 06:39:41;;;;;;;;;;;23.10;59.40;;;23.77;40.93;98598.31;5013248;27;123869;-76
2023/06/29 06:42:07;;;;;;;;;;;23.20;59.20;;;23.86;40.88;98593.06;5015331;27;120323;-76
2023/06/29 06:44:36;;;;;;;;;;;23.30;59.20;;;23.96;40.66;98588.59;5026331;28;119908;-75
2023/06/29 06:47:02;;;;;;;;;;;23.40;59.20;;;24.01;40.64;98599.47;5042347;27;124180;-76
2023/06/29 06:49:31;;;;;;;;;;;23.50;59.10;;;24.05;40.76;98596.66;5009962;28;122936;-76
2023/06/29 06:52:02;;;;;;;;;;;23.50;59.00;;;24.15;40.48;98587.31;5021135;27;119437;-76
2023/06/29 06:54:28;;;;;;;;;;;23.60;59.00;;;24.25;40.43;98592.91;5016763;27;118835;-76
2023/06/29 06:56:54;;;;;;;;;;;23.70;59.00;;;24.33;40.21;98590.06;5024521;27;125199;-76
2023/06/29 06:59:20;;;;;;;;;;;23.70;58.60;;;24.41;39.88;98583.19;5020640;27;123709;-76
2023/06/29 07:01:47;;;;;;;;;;;23.80;58.50;;;24.47;40.06;98587.19;5012004;27;120635;-77
2023/06/29 07:04:13;;;;;;;;;;;25.00;59.40;;;24.49;39.67;98579.13;5012992;28;119893;-77
2023/06/29 07:06:39;;;;;;;;;;;24.00;59.00;;;24.52;39.78;98578.31;5003491;28;123117;-78
2023/06/29 07:09:07;;;;;;;;;;;24.00;58.20;;;24.57;39.69;98574.25;5019756;27;123359;-77
2023/06/29 07:11:34;;;;;;;;;;;24.00;58.20;;;24.64;39.44;98569.38;5022476;27;119428;-78
2023/06/29 07:14:00;;;;;;;;;;;24.10;58.30;;;24.75;39.74;98569.31;5015567;27;118980;-77
2023/06/29 07:16:26;;;;;;;;;;;24.20;58.30;;;24.83;39.36;98562.38;5025521;27;124565;-76
2023/06/29 07:19:08;;;;;;;;;;;24.30;58.20;;;24.90;39.26;98570.81;5015440;27;124321;-78
2023/06/29 07:21:34;;;;;;;;;;;24.30;58.00;;;24.96;39.14;98557.03;5023365;27;118734;-77
2023/06/29 07:24:01;;;;;;;;;;;24.40;57.90;;;24.99;39.20;98559.03;5012991;27;118526;-77
2023/06/29 07:26:27;;;;;;;;;;;24.40;57.70;;;25.02;39.06;98555.38;5032676;27;124703;-77
2023/06/29 07:28:53;;;;;;;;;;;24.50;57.60;;;25.05;38.97;98556.56;5006571;27;123275;-78
2023/06/29 07:31:26;;;;;;;;;;;24.50;57.50;;;25.10;38.61;98550.47;5035878;27;120803;-77
2023/06/29 07:33:54;;;;;;;;;;;24.50;57.50;;;25.16;39.04;98553.69;5038973;27;119771;-77
2023/06/29 07:36:21;;;;;;;;;;;24.60;57.50;;;25.21;39.10;98551.22;5023885;27;124105;-77
2023/06/29 07:38:49;;;;;;;;;;;24.70;57.40;;;25.25;38.93;98557.63;5026286;27;123856;-78
2023/06/29 07:41:17;;;;;;;;;;;24.70;57.20;;;25.30;38.82;98547.91;5023854;27;119200;-78
2023/06/29 07:43:50;;;;;;;;;;;24.80;57.10;;;25.34;38.54;98545.84;5029170;27;117764;-79
2023/06/29 07:46:16;;;;;;;;;;;24.90;57.10;;;25.39;37.89;98553.06;5030880;27;123836;-76
2023/06/29 07:48:43;;;;;;;;;;;24.80;56.40;;;25.38;38.14;98543.78;5024244;27;124297;-77
2023/06/29 07:51:10;;;;;;;;;;;24.90;56.40;;;25.40;38.28;98534.88;5015218;27;120066;-77
2023/06/29 07:53:38;;;;;;;;;;;24.90;56.20;;;25.43;37.88;98543.31;5023026;27;119075;-77
2023/06/29 07:56:05;;;;;;;;;;;24.90;56.10;;;25.48;37.85;98542.06;5015819;28;123730;-77
2023/06/29 07:58:34;;;;;;;;;;;25.00;56.10;;;25.51;37.71;98544.84;5022868;27;124874;-77
2023/06/29 08:01:01;;;;;;;;;;;25.00;56.00;;;25.56;37.52;98538.75;5022216;27;119312;-77
2023/06/29 08:03:28;;;;;;;;;;;25.00;55.70;;;25.63;37.22;98542.72;5018018;27;118160;-77
2023/06/29 08:05:57;;;;;;;;;;;25.10;55.80;;;25.73;37.60;98541.81;5018020;27;124422;-76
2023/06/29 08:08:27;;;;;;;;;;;25.10;55.70;;;25.83;36.82;98540.88;5022980;27;125229;-77
2023/06/29 08:10:56;;;;;;;;;;;25.20;55.50;;;25.90;37.04;98534.34;5027890;27;119517;-77
2023/06/29 08:13:23;;;;;;;;;;;25.30;55.40;;;25.94;36.67;98535.94;5008241;27;119143;-77
2023/06/29 08:15:49;;;;;;;;;;;25.40;55.30;;;25.98;37.00;98518.91;5017296;28;124771;-76
2023/06/29 08:18:15;;;;;;;;;;;25.40;55.20;;;26.02;36.24;98530.97;5014770;27;124142;-77
2023/06/29 08:20:42;;;;;;;;;;;25.50;54.60;;;26.08;35.89;98528.47;5004304;27;120242;-76
2023/06/29 08:23:08;;;;;;;;;;;25.50;54.10;;;26.13;35.97;98519.53;5007732;27;119111;-77
2023/06/29 08:25:35;;;;;;;;;;;25.60;53.70;;;26.18;35.60;98527.56;5005421;28;124290;-77
2023/06/29 08:28:01;;;;;;;;;;;25.70;53.70;;;26.26;35.61;98516.94;5007871;27;123936;-77
2023/06/29 08:30:27;;;;;;;;;;;25.70;53.30;;;26.29;35.16;98522.53;5007849;27;119894;-77
2023/06/29 08:32:56;;;;;;;;;;;25.80;52.50;;;26.31;34.91;98520.09;5009742;27;119045;-77
2023/06/29 08:35:22;;;;;;;;;;;25.90;52.60;;;26.38;34.82;98522.00;5008150;27;124209;-77
2023/06/29 08:37:48;;;;;;;;;;;25.90;52.60;;;26.44;34.78;98512.63;4991550;28;122929;-77
2023/06/29 08:40:18;;;;;;;;;;;26.00;52.60;;;26.50;35.16;98509.31;5014380;27;118760;-77
2023/06/29 08:42:44;;;;;;;;;;;26.00;52.50;;;26.58;34.21;98513.69;5006926;27;119066;-77
2023/06/29 08:45:10;;;;;;;;;;;26.10;51.90;;;26.62;33.79;98517.25;5002582;28;123536;-77
2023/06/29 08:47:40;;;;;;;;;;;26.10;51.40;;;26.63;33.72;98514.00;5024980;28;123664;-77
2023/06/29 08:50:09;;;;;;;;;;;26.10;51.10;;;26.65;33.93;98505.03;5018147;27;119184;-77
2023/06/29 08:52:39;;;;;;;;;;;26.20;50.80;;;26.70;33.50;98507.41;5025765;27;118843;-76
2023/06/29 08:55:06;;;;;;;;;;;26.30;50.70;;;26.77;33.19;98501.63;5008884;27;124822;-76
2023/06/29 08:57:32;;;;;;;;;;;26.30;50.50;;;26.86;32.91;98504.72;5010750;27;124058;-76
2023/06/29 09:00:03;;;;;;;;;;;26.30;50.30;;;26.93;33.36;98498.13;5015423;28;119175;-77
2023/06/29 09:02:33;;;;;;;;;;;26.40;50.20;;;27.02;33.25;98489.06;5013577;27;118756;-77
2023/06/29 09:05:02;;;;;;;;;;;26.50;50.10;;;27.08;32.69;98490.19;5014018;28;124363;-77
2023/06/29 09:07:28;;;;;;;;;;;26.50;49.60;;;27.12;32.39;98488.09;4989547;27;124682;-77
2023/06/29 09:09:55;;;;;;;;;;;26.60;49.30;;;27.16;32.24;98483.13;5007825;27;120651;-77
2023/06/29 09:12:22;;;;;;;;;;;26.60;49.00;;;27.21;32.05;98481.88;5006153;27;120125;-78
2023/06/29 09:14:48;;;;;;;;;;;26.70;48.30;;;27.25;31.87;98486.25;5008123;27;124933;-78
2023/06/29 09:17:15;;;;;;;;;;;26.70;48.50;;;27.28;31.97;98490.28;5005066;27;124184;-77
2023/06/29 09:19:56;;;;;;;;;;;26.70;48.50;;;27.31;31.76;98486.56;5009534;27;119814;-77
2023/06/29 09:22:27;;;;;;;;;;;26.80;48.40;;;27.36;32.03;98490.94;5006567;27;119269;-78
2023/06/29 09:24:59;;;;;;;;;;;26.80;48.60;;;27.41;31.84;98484.78;5009907;27;124122;-78
2023/06/29 09:27:28;;;;;;;;;;;26.90;48.20;;;27.46;31.69;98485.06;5004340;27;122947;-78
2023/06/29 09:29:55;;;;;;;;;;;26.90;48.30;;;27.55;31.49;98484.50;5009803;27;119484;-78
2023/06/29 09:32:21;;;;;;;;;;;27.00;48.30;;;27.61;31.42;98488.41;5015199;27;119544;-78
2023/06/29 09:34:48;;;;;;;;;;;27.10;48.00;;;27.63;31.66;98474.59;5014416;27;124119;-78
2023/06/29 09:37:18;;;;;;;;;;;27.10;47.80;;;27.67;31.03;98491.56;5040798;27;123722;-78
2023/06/29 09:40:12;;;;;;;;;;;27.20;47.70;;;27.69;31.17;98491.94;5028135;27;119460;-77
2023/06/29 09:42:38;;;;;;;;;;;27.20;47.60;;;27.76;30.93;98486.91;5032212;27;118638;-77
2023/06/29 09:45:14;;;;;;;;;;;27.30;47.00;;;27.81;30.72;98479.13;5020228;27;124326;-77
2023/06/29 09:47:48;;;;;;;;;;;27.30;47.00;;;27.83;30.15;98482.34;5008229;27;123896;-77
2023/06/29 09:50:19;;;;;;;;;;;27.40;46.40;;;27.85;30.53;98482.72;5014504;27;119682;-77
2023/06/29 09:52:46;;;;;;;;;;;27.40;46.20;;;27.89;30.39;98483.47;5018407;27;118756;-77
2023/06/29 09:55:14;;;;;;;;;;;27.50;46.30;;;27.93;30.23;98484.16;5017900;27;124483;-77
2023/06/29 09:57:42;;;;;;;;;;;27.50;45.90;;;27.96;30.38;98471.94;5013706;27;124007;-77
2023/06/29 10:00:11;;;;;;;;;;;27.50;46.00;;;28.01;30.28;98474.25;5031818;27;119817;-77
2023/06/29 10:02:39;;;;;;;;;;;27.60;46.20;;;28.10;30.37;98470.81;5018240;27;120076;-78
2023/06/29 10:05:07;;;;;;;;;;;27.60;46.40;;;28.17;30.37;98479.97;5020254;27;124230;-77
2023/06/29 10:07:36;;;;;;;;;;;27.70;46.00;;;28.23;29.80;98482.31;5019520;27;124222;-78
2023/06/29 10:10:05;;;;;;;;;;;27.80;46.10;;;28.30;30.01;98465.13;5007834;27;119510;-77
2023/06/29 10:12:33;;;;;;;;;;;27.80;46.00;;;28.35;29.72;98458.91;5013810;27;118788;-77
2023/06/29 10:15:08;;;;;;;;;;;27.90;45.50;;;28.40;29.57;98461.22;5018715;27;124289;-77
2023/06/29 10:17:45;;;;;;;;;;;27.90;45.30;;;28.44;29.73;98456.28;5021283;27;123993;-77
2023/06/29 10:20:13;;;;;;;;;;;27.90;45.50;;;28.53;28.93;98459.31;5025632;27;118936;-77
2023/06/29 10:22:39;;;;;;;;;;;28.00;45.10;;;28.56;29.15;98451.94;5008296;27;118854;-78
2023/06/29 10:25:09;;;;;;;;;;;28.00;44.90;;;28.60;29.13;98453.44;5014418;27;124079;-77
2023/06/29 10:27:38;;;;;;;;;;;28.00;44.90;;;28.67;29.13;98435.44;5009933;27;123578;-78
2023/06/29 10:30:07;;;;;;;;;;;28.10;44.90;;;28.73;29.18;98438.53;4999169;28;118853;-77
2023/06/29 10:32:38;;;;;;;;;;;28.10;44.90;;;28.79;29.10;98436.75;5012768;27;118589;-78
2023/06/29 10:35:09;;;;;;;;;;;28.20;44.80;;;28.85;28.65;98430.09;5018364;27;122509;-77
2023/06/29 10:37:37;;;;;;;;;;;28.30;44.50;;;28.91;28.65;98430.34;5022468;27;124010;-77
2023/06/29 10:40:11;;;;;;;;;;;28.30;44.50;;;28.95;28.63;98428.22;5006854;28;118521;-78
2023/06/29 10:42:40;;;;;;;;;;;28.40;44.20;;;28.96;28.70;98421.28;5011181;27;119009;-78
2023/06/29 10:45:26;;;;;;;;;;;28.40;44.10;;;28.97;28.57;98420.03;5021797;27;122163;-80
2023/06/29 10:47:57;;;;;;;;;;;28.50;44.00;;;29.02;28.60;98427.25;5009194;27;123961;-80
2023/06/29 10:50:40;;;;;;;;;;;28.50;44.10;;;29.05;28.48;98409.31;5013335;27;121306;-79
2023/06/29 10:53:13;;;;;;;;;;;28.60;43.80;;;29.04;28.56;98404.84;5021606;27;119120;-79
2023/06/29 10:55:42;;;;;;;;;;;28.60;43.90;;;29.05;28.46;98410.09;5006895;27;124378;-77
2023/06/29 10:58:35;;;;;;;;;;;28.60;43.80;;;29.05;28.29;98415.00;5009669;27;124827;-79
2023/06/29 11:01:02;;;;;;;;;;;28.60;43.70;;;29.08;29.02;98405.56;5013721;27;119379;-77
2023/06/29 11:03:28;;;;;;;;;;;28.60;43.90;;;29.15;28.36;98407.41;5016409;27;119284;-77
2023/06/29 11:05:55;;;;;;;;;;;28.70;43.80;;;29.20;28.72;98409.69;5013652;27;122798;-77
2023/06/29 11:08:22;;;;;;;;;;;28.70;43.60;;;29.22;27.97;98405.16;5026997;27;123811;-77
2023/06/29 11:10:50;;;;;;;;;;;28.80;43.50;;;29.26;27.95;98410.78;5022716;27;119727;-77
2023/06/29 11:13:18;;;;;;;;;;;28.80;43.40;;;29.27;28.37;98406.66;5014642;27;119429;-77